Chicago Lansing, IL

1:04 PM CDT on May 22, 2017 (GMT -0500)
Lansing Municipal

Weather History for KIGQ - December, 2013

Change the Weather History Date:

Tuesday, December 3, 2013

  Actual Average (KGYY) Record (KGYY)
Temperature  
Mean Temperature 43 °F -  
Max Temperature 50 °F 36 °F 71 °F (2012)
Min Temperature 36 °F 23 °F 9 °F (1976)
Degree Days  
Heating Degree Days 22    
Moisture  
Dew Point 42 °F    
Average Humidity 91    
Maximum Humidity 93    
Minimum Humidity 87    
Precipitation  
Precipitation 0.00 in - - ()
Sea Level Pressure  
Sea Level Pressure 29.72 in    
Wind  
Wind Speed 9 mph (SSE)    
Max Wind Speed 13 mph    
Max Gust Speed 17 mph    
Visibility 3 miles    
Events Rain    
Averages and records for this station are not official NWS values.
T = Trace of Precipitation, MM = Missing Value Source: NWS Daily Summary

Daily Weather History Graph

Daily Weather History Graph

Search for Another Location

Airport or City:

Trip Planner

Search our weather history database for the weather conditions in past years. The results will help you decide how hot, cold, wet, or windy it might be!

Date:

Astronomy

Dec. 03, 2013 Rise Set
Actual Time 6:59 AM CST 4:20 PM CST
Civil Twilight 6:28 AM CST 4:51 PM CST
Nautical Twilight 5:53 AM CST 5:26 PM CST
Astronomical Twilight 5:20 AM CST 5:59 PM CST
Moon 7:28 AM CST (12/3) 5:24 PM CST (12/3)
Length of Visible Light 10h 22m
Length of Day
9h 20m
New Moon, 1% of the Moon is Illuminated
Dec 3
New Moon
Dec 9
First Quarter
Dec 17
Full
Dec 25
Last Quarter
Jan 1
New

Hourly Weather History & Observations

Time (CST) Temp. Windchill Dew Point Humidity Pressure Visibility Wind Dir Wind Speed Gust Speed Precip Events Conditions
12:15 AM 36.0 °F 30.3 °F 33.8 °F 92% 29.76 in 3.0 mi ESE 6.9 mph - N/A   Light Drizzle
12:35 AM 36.0 °F 29.0 °F 33.8 °F 92% 29.76 in 3.0 mi SE 9.2 mph - N/A Rain Light Rain
12:55 AM 36.1 °F 29.9 °F 34.0 °F 92% 29.75 in 3.0 mi ESE 8.1 mph - N/A   Overcast
1:15 AM 36.1 °F 29.9 °F 34.0 °F 92% 29.75 in 3.0 mi SE 8.1 mph - N/A   Overcast
1:35 AM 36.1 °F 29.9 °F 34.0 °F 92% 29.75 in 3.0 mi SE 8.1 mph - N/A   Overcast
1:55 AM 36.1 °F 30.6 °F 34.0 °F 92% 29.75 in 3.0 mi SE 6.9 mph - N/A   Overcast
2:15 AM 36.5 °F 29.7 °F 34.2 °F 91% 29.74 in 3.0 mi SE 9.2 mph - N/A   Overcast
2:35 AM 36.5 °F 30.3 °F 34.0 °F 91% 29.74 in 3.0 mi SE 8.1 mph - N/A   Overcast
2:55 AM 36.0 °F 29.6 °F 33.8 °F 92% 29.74 in 3.0 mi SE 8.1 mph - N/A   Overcast
3:15 AM 36.1 °F 28.2 °F 33.8 °F 91% 29.73 in 3.0 mi SE 11.5 mph - N/A   Overcast
3:35 AM 36.1 °F 29.3 °F 34.0 °F 92% 29.72 in 3.0 mi SE 9.2 mph - N/A   Overcast
3:55 AM 36.5 °F 29.2 °F 34.2 °F 91% 29.72 in 3.0 mi SE 10.4 mph 16.1 mph N/A   Overcast
4:15 AM 36.7 °F 29.9 °F 34.7 °F 93% 29.72 in 3.0 mi SE 9.2 mph - N/A   Overcast
4:35 AM 37.0 °F 31.0 °F 34.7 °F 91% 29.72 in 3.0 mi SE 8.1 mph - N/A   Overcast
4:55 AM 37.4 °F 30.3 °F 35.1 °F 91% 29.71 in 3.0 mi SE 10.4 mph - N/A   Overcast
5:15 AM 37.6 °F 31.6 °F 35.2 °F 91% 29.72 in 3.0 mi SE 8.1 mph - N/A   Overcast
5:35 AM 37.8 °F 32.5 °F 35.6 °F 92% 29.72 in 3.0 mi SE 6.9 mph - N/A   Overcast
5:55 AM 37.9 °F 32.7 °F 35.6 °F 91% 29.72 in 3.0 mi SE 6.9 mph - N/A   Overcast
6:15 AM 38.3 °F 32.5 °F 35.8 °F 91% 29.72 in 3.0 mi SSE 8.1 mph - N/A   Overcast
6:35 AM 38.5 °F 33.4 °F 36.0 °F 91% 29.72 in 3.0 mi SSE 6.9 mph - N/A   Overcast
6:55 AM 38.7 °F 33.6 °F 36.1 °F 91% 29.72 in 3.0 mi SSE 6.9 mph - N/A   Overcast
7:15 AM 39.2 °F 35.9 °F 36.5 °F 90% 29.73 in 3.0 mi SSE 4.6 mph - N/A   Overcast
7:35 AM 39.2 °F 33.6 °F 36.5 °F 90% 29.74 in 2.5 mi SSE 8.1 mph - N/A   Overcast
7:55 AM 39.4 °F 34.5 °F 36.7 °F 90% 29.74 in 2.5 mi SSE 6.9 mph - N/A   Overcast
8:15 AM 39.6 °F 33.5 °F 36.9 °F 90% 29.74 in 2.5 mi SE 9.2 mph - N/A   Overcast
8:35 AM 39.9 °F 35.1 °F 37.4 °F 91% 29.74 in 2.5 mi SSE 6.9 mph - N/A   Overcast
8:55 AM 40.5 °F 35.1 °F 37.9 °F 91% 29.75 in 2.5 mi South 8.1 mph - N/A   Overcast
9:15 AM 41.0 °F 35.2 °F 38.3 °F 90% 29.75 in 2.5 mi SSE 9.2 mph - N/A   Overcast
9:35 AM 41.5 °F 37.1 °F 38.7 °F 89% 29.74 in 2.5 mi SSE 6.9 mph - N/A   Overcast
9:55 AM 42.1 °F 36.6 °F 39.2 °F 90% 29.75 in 2.5 mi SSE 9.2 mph - N/A   Overcast
10:15 AM 42.8 °F 38.0 °F 39.7 °F 89% 29.75 in 2.5 mi SSE 8.1 mph - N/A   Overcast
10:35 AM 43.2 °F 39.0 °F 40.3 °F 90% 29.74 in 2.5 mi SSE 6.9 mph - N/A   Overcast
10:55 AM 44.4 °F 39.5 °F 41.2 °F 88% 29.73 in 2.5 mi SSE 9.2 mph - N/A   Overcast
11:15 AM 45.5 °F 41.3 °F 42.1 °F 88% 29.72 in 2.5 mi SSE 8.1 mph - N/A   Overcast
11:35 AM 46.4 °F 41.9 °F 42.8 °F 87% 29.72 in 2.5 mi South 9.2 mph - N/A   Overcast
11:55 AM 46.8 °F - 43.5 °F 88% 29.71 in 2.5 mi SSE 9.2 mph - N/A   Overcast
12:15 PM 46.8 °F - 43.7 °F 89% 29.71 in 2.0 mi SSE 9.2 mph - N/A   Overcast
12:35 PM 47.5 °F - 44.6 °F 90% 29.70 in 2.0 mi SSE 8.1 mph - N/A   Overcast
12:55 PM 48.2 °F - 45.3 °F 90% 29.70 in 2.0 mi SSE 8.1 mph - N/A   Overcast
1:15 PM 49.3 °F - 45.9 °F 88% 29.69 in 2.0 mi SSE 9.2 mph - N/A   Overcast
1:35 PM 49.6 °F - 46.2 °F 88% 29.68 in 2.5 mi SSE 11.5 mph - N/A   Overcast
1:55 PM 50.0 °F - 46.6 °F 88% 29.69 in 3.0 mi South 11.5 mph - N/A   Overcast
2:15 PM 50.0 °F - 46.6 °F 88% 29.69 in 3.0 mi South 11.5 mph - N/A   Overcast
2:35 PM 50.2 °F - 46.9 °F 89% 29.69 in 3.0 mi South 9.2 mph - N/A   Overcast
2:55 PM 50.4 °F - 47.3 °F 89% 29.69 in 3.0 mi South 8.1 mph - N/A   Overcast
3:15 PM 50.0 °F - 47.3 °F 90% 29.70 in 3.0 mi South 8.1 mph - N/A   Overcast
3:35 PM 49.6 °F - 47.3 °F 92% 29.70 in 2.5 mi South 10.4 mph - N/A   Overcast
3:55 PM 50.0 °F - 47.3 °F 90% 29.70 in 2.5 mi South 9.2 mph - N/A   Overcast
4:15 PM 50.0 °F - 47.3 °F 90% 29.69 in 3.0 mi South 9.2 mph - N/A   Overcast
4:35 PM 49.6 °F - 47.1 °F 91% 29.70 in 3.0 mi South 8.1 mph - N/A   Overcast
4:55 PM 49.3 °F - 47.3 °F 93% 29.69 in 2.5 mi South 9.2 mph - N/A   Overcast
5:15 PM 49.1 °F - 47.3 °F 93% 29.70 in 2.0 mi South 9.2 mph - N/A   Overcast
5:35 PM 49.1 °F - 47.3 °F 93% 29.69 in 2.0 mi SSE 8.1 mph - N/A   Overcast
5:55 PM 49.1 °F - 47.1 °F 93% 29.68 in 3.0 mi SSE 10.4 mph - N/A   Overcast
6:15 PM 49.1 °F - 46.9 °F 92% 29.69 in 3.0 mi South 10.4 mph - N/A   Overcast
6:35 PM 49.1 °F - 46.8 °F 92% 29.71 in 3.0 mi South 11.5 mph - N/A   Overcast
6:55 PM 49.1 °F - 46.6 °F 91% 29.72 in 3.0 mi South 10.4 mph - N/A   Overcast
7:15 PM 48.9 °F - 46.6 °F 92% 29.72 in 3.0 mi South 12.7 mph 17.3 mph N/A   Overcast
7:35 PM 48.7 °F - 46.4 °F 92% 29.74 in 3.0 mi South 9.2 mph - N/A   Overcast
7:55 PM 48.9 °F - 46.6 °F 92% 29.75 in 3.0 mi South 9.2 mph - N/A   Overcast
8:15 PM 48.9 °F - 46.8 °F 92% 29.74 in 3.0 mi South 11.5 mph - N/A   Overcast
8:35 PM 48.9 °F - 46.6 °F 92% 29.75 in 3.0 mi South 10.4 mph - N/A   Overcast
8:55 PM 49.1 °F - 46.8 °F 92% 29.75 in 3.0 mi South 8.1 mph - N/A   Overcast
9:15 PM 48.9 °F - 46.6 °F 92% 29.76 in 3.0 mi South 8.1 mph - N/A   Overcast
9:35 PM 49.1 °F - 46.8 °F 92% 29.75 in 3.0 mi South 9.2 mph - N/A   Overcast
9:55 PM 49.1 °F - 46.8 °F 92% 29.74 in 3.0 mi South 9.2 mph - N/A   Overcast
10:15 PM 49.1 °F - 46.9 °F 92% 29.74 in 3.0 mi South 9.2 mph - N/A   Overcast
10:35 PM 49.1 °F - 46.8 °F 92% 29.74 in 3.0 mi SSE 8.1 mph - N/A   Overcast
10:55 PM 49.1 °F - 46.8 °F 92% 29.74 in 3.0 mi SSE 6.9 mph - N/A   Overcast
11:15 PM 49.1 °F - 46.8 °F 92% 29.74 in 3.0 mi South 9.2 mph - N/A   Overcast
11:35 PM 48.9 °F - 46.8 °F 92% 29.74 in 3.0 mi South 8.1 mph - N/A   Overcast
11:55 PM 48.9 °F - 46.6 °F 92% 29.74 in 3.0 mi South 9.2 mph - N/A   Overcast